Time;durP1;ratioP1;P1;durP2;ratioP2;P2;SDS_P1;SDS_P2;PMS_P1;PMS_P2;Temp;Humidity;BMP_temperature;BMP_pressure;BME280_temperature;BME280_humidity;BME280_pressure;Samples;Min_cycle;Max_cycle;Signal;HPM_P1;HPM_P2
2023/02/03 00:01:08;;;;;;;4.68;1.80;;;;;;;2.82;100.00;97061.56;5101584;28;24476;-74
2023/02/03 00:03:34;;;;;;;1.20;0.77;;;;;;;2.78;100.00;97058.19;5099681;28;24445;-75
2023/02/03 00:06:02;;;;;;;1.30;0.68;;;;;;;2.82;100.00;97059.00;5102607;28;24429;-75
2023/02/03 00:08:29;;;;;;;1.83;0.63;;;;;;;2.76;100.00;97057.34;5093260;28;24796;-75
2023/02/03 00:10:55;;;;;;;1.33;0.50;;;;;;;2.81;100.00;97047.06;5103125;28;24787;-74
2023/02/03 00:13:24;;;;;;;1.58;0.45;;;;;;;2.79;100.00;97031.72;5098234;28;24434;-75
2023/02/03 00:15:51;;;;;;;1.10;0.50;;;;;;;2.80;100.00;97035.13;5096171;28;24426;-74
2023/02/03 00:18:17;;;;;;;1.45;0.60;;;;;;;2.78;100.00;97034.28;5097173;28;24426;-74
2023/02/03 00:20:44;;;;;;;1.70;0.50;;;;;;;2.76;100.00;97039.44;5101657;28;24437;-75
2023/02/03 00:23:11;;;;;;;1.38;0.73;;;;;;;2.82;100.00;97047.06;5090510;28;24442;-75
2023/02/03 00:25:38;;;;;;;0.85;0.50;;;;;;;2.79;100.00;97041.13;5092314;28;24434;-75
2023/02/03 00:28:05;;;;;;;1.30;0.43;;;;;;;2.81;100.00;97036.81;5091308;28;24426;-74
2023/02/03 00:30:35;;;;;;;1.60;0.70;;;;;;;2.77;100.00;97042.84;5094583;28;24433;-75
2023/02/03 00:33:02;;;;;;;3.25;0.75;;;;;;;2.77;100.00;97042.84;5099393;28;24430;-75
2023/02/03 00:35:28;;;;;;;0.90;0.50;;;;;;;2.79;100.00;97041.13;5101069;28;25010;-76
2023/02/03 00:37:56;;;;;;;1.13;0.60;;;;;;;2.74;100.00;97046.28;5096593;28;24429;-75
2023/02/03 00:40:25;;;;;;;2.00;0.57;;;;;;;2.82;100.00;97041.09;5094788;28;24435;-75
2023/02/03 00:42:53;;;;;;;2.78;0.70;;;;;;;2.75;100.00;97042.88;5081357;28;24449;-75
2023/02/03 00:45:20;;;;;;;1.50;0.52;;;;;;;2.74;100.00;97033.47;5097779;28;24525;-75
2023/02/03 00:47:47;;;;;;;1.48;0.63;;;;;;;2.82;100.00;97033.41;5100567;28;24441;-75
2023/02/03 00:50:14;;;;;;;2.30;0.90;;;;;;;2.84;100.00;97026.56;5100394;28;24445;-75
2023/02/03 00:52:40;;;;;;;2.35;0.90;;;;;;;2.87;100.00;97024.81;5099215;28;25206;-75
2023/02/03 00:55:08;;;;;;;2.00;0.90;;;;;;;2.84;100.00;97024.84;5095190;28;24442;-75
2023/02/03 00:57:35;;;;;;;2.80;1.00;;;;;;;2.84;100.00;97024.84;5086894;28;24433;-74
2023/02/03 01:00:01;;;;;;;2.90;1.10;;;;;;;2.90;100.00;97035.00;5095986;28;24442;-75
2023/02/03 01:02:28;;;;;;;1.92;1.00;;;;;;;2.98;100.00;97040.03;5093003;28;24461;-74
2023/02/03 01:04:55;;;;;;;3.53;1.23;;;;;;;2.97;100.00;97042.63;5091480;28;24446;-74
2023/02/03 01:07:22;;;;;;;3.45;1.20;;;;;;;3.04;100.00;97041.66;5101498;28;24426;-75
2023/02/03 01:09:48;;;;;;;3.90;1.20;;;;;;;3.11;100.00;97041.53;5095530;28;24430;-74
2023/02/03 01:12:15;;;;;;;2.17;1.25;;;;;;;3.14;100.00;97056.88;5102263;28;24497;-74
2023/02/03 01:14:41;;;;;;;2.28;1.25;;;;;;;3.26;100.00;97052.44;5095730;28;24430;-74
2023/02/03 01:17:08;;;;;;;4.38;1.33;;;;;;;3.30;100.00;97054.09;5091344;28;24442;-75
2023/02/03 01:19:34;;;;;;;2.05;1.23;;;;;;;3.29;100.00;97034.50;5081740;28;24446;-74
2023/02/03 01:22:02;;;;;;;4.63;1.20;;;;;;;3.37;100.00;97040.34;5086863;28;24454;-74
2023/02/03 01:24:29;;;;;;;2.22;1.13;;;;;;;3.51;100.00;97037.59;5097702;28;25303;-74
2023/02/03 01:26:56;;;;;;;2.35;1.30;;;;;;;3.49;100.00;97021.41;5092571;28;24460;-75
2023/02/03 01:29:22;;;;;;;6.35;1.20;;;;;;;3.46;100.00;97031.72;5103361;28;24436;-74
2023/02/03 01:31:48;;;;;;;2.60;1.05;;;;;;;3.40;100.00;97024.94;5103888;28;24429;-74
2023/02/03 01:34:17;;;;;;;3.38;1.10;;;;;;;3.35;100.00;97034.41;5103950;28;25001;-75
2023/02/03 01:36:45;;;;;;;1.83;0.90;;;;;;;3.32;100.00;97047.25;5104191;28;24509;-74
2023/02/03 01:39:13;;;;;;;3.50;1.10;;;;;;;3.26;100.00;97037.94;5104579;28;24958;-75
2023/02/03 01:41:40;;;;;;;1.70;0.93;;;;;;;3.24;100.00;97011.53;5099568;28;24454;-75
2023/02/03 01:44:35;;;;;;;3.20;1.08;;;;;;;3.27;100.00;96991.00;5102124;28;24516;-75
2023/02/03 01:47:03;;;;;;;3.90;1.20;;;;;;;3.22;100.00;97000.44;5077880;28;24449;-75
2023/02/03 01:49:35;;;;;;;3.58;0.95;;;;;;;3.24;100.00;97008.13;5103260;28;24800;-74
2023/02/03 01:52:03;;;;;;;1.88;1.00;;;;;;;3.28;100.00;97022.56;5093276;28;24421;-75
2023/02/03 01:54:36;;;;;;;2.67;1.10;;;;;;;3.27;100.00;97023.44;5106577;28;24453;-75
2023/02/03 01:57:06;;;;;;;1.38;0.73;;;;;;;3.29;100.00;97040.44;5102272;28;24521;-76
2023/02/03 01:59:34;;;;;;;2.90;1.08;;;;;;;3.26;100.00;97047.31;5091220;28;24437;-75
2023/02/03 02:02:02;;;;;;;2.40;0.93;;;;;;;3.19;100.00;97038.03;5098430;28;24449;-75
2023/02/03 02:04:34;;;;;;;2.10;1.00;;;;;;;3.21;100.00;97033.75;5098935;28;24449;-75
2023/02/03 02:07:01;;;;;;;2.13;1.00;;;;;;;3.24;100.00;97018.34;5103044;28;24462;-75
2023/02/03 02:09:28;;;;;;;2.78;1.08;;;;;;;3.22;100.00;97015.81;5097970;28;24431;-75
2023/02/03 02:11:56;;;;;;;1.50;0.90;;;;;;;3.29;100.00;97003.75;5106322;28;24450;-75
2023/02/03 02:14:22;;;;;;;4.05;0.80;;;;;;;3.28;100.00;97002.09;5098065;28;24441;-75
2023/02/03 02:16:58;;;;;;;2.85;1.00;;;;;;;3.27;100.00;96993.56;5096343;28;24440;-75
2023/02/03 02:19:48;;;;;;;2.80;0.90;;;;;;;3.22;100.00;96954.34;5092767;28;24792;-75
2023/02/03 02:22:22;;;;;;;1.43;0.60;;;;;;;3.23;100.00;96947.56;5095422;28;24537;-75
2023/02/03 02:25:06;;;;;;;1.50;0.82;;;;;;;3.22;100.00;96940.72;5102457;28;24445;-75
2023/02/03 02:28:03;;;;;;;1.38;0.73;;;;;;;3.23;100.00;96934.75;5094696;28;24970;-75
2023/02/03 02:31:06;;;;;;;1.13;0.70;;;;;;;3.20;100.00;96939.91;5104465;28;24437;-74
2023/02/03 02:33:42;;;;;;;1.23;0.80;;;;;;;3.14;100.00;96956.19;5109533;28;24522;-74
2023/02/03 02:36:20;;;;;;;1.30;0.77;;;;;;;3.15;100.00;96961.31;5093418;28;24426;-75
2023/02/03 02:38:57;;;;;;;0.88;0.60;;;;;;;3.22;100.00;96956.06;5100813;28;24791;-75
2023/02/03 02:41:30;;;;;;;2.47;0.75;;;;;;;3.14;100.00;96962.16;5097686;28;24430;-74
2023/02/03 02:44:01;;;;;;;1.17;0.52;;;;;;;3.17;100.00;96960.44;5095059;28;24431;-77
2023/02/03 02:46:35;;;;;;;1.20;0.70;;;;;;;3.14;100.00;96957.03;5098934;28;24875;-74
2023/02/03 02:49:06;;;;;;;1.15;0.47;;;;;;;3.18;100.00;96944.19;5102672;28;24429;-75
2023/02/03 02:51:36;;;;;;;0.47;0.47;;;;;;;3.16;100.00;96951.91;5099994;28;24955;-74
2023/02/03 02:54:07;;;;;;;1.60;0.70;;;;;;;3.14;100.00;96951.91;5102233;28;24432;-74
2023/02/03 02:56:36;;;;;;;1.70;0.65;;;;;;;3.19;100.00;96941.63;5101106;28;24428;-74
2023/02/03 02:59:04;;;;;;;0.40;0.25;;;;;;;3.21;100.00;96949.28;5092042;28;24431;-75
2023/02/03 03:01:31;;;;;;;2.70;0.63;;;;;;;3.18;100.00;96942.47;5097572;28;24425;-75
2023/02/03 03:04:00;;;;;;;0.43;0.40;;;;;;;3.17;100.00;96948.47;5094259;28;24469;-75
2023/02/03 03:06:33;;;;;;;1.70;0.60;;;;;;;3.17;100.00;96934.84;5098864;28;24437;-75
2023/02/03 03:09:05;;;;;;;1.00;0.20;;;;;;;3.18;100.00;96934.78;5098400;28;25005;-75
2023/02/03 03:11:36;;;;;;;0.75;0.32;;;;;;;3.16;100.00;96926.31;5106814;28;24437;-75
2023/02/03 03:14:06;;;;;;;1.60;0.50;;;;;;;3.20;100.00;96934.78;5097290;28;24464;-75
2023/02/03 03:16:37;;;;;;;0.85;0.38;;;;;;;3.15;100.00;96932.28;5099846;28;24803;-74
2023/02/03 03:19:10;;;;;;;1.30;0.20;;;;;;;3.19;100.00;96923.72;5098847;28;24430;-75
2023/02/03 03:21:42;;;;;;;1.58;0.40;;;;;;;3.17;100.00;96922.88;5084425;28;24426;-74
2023/02/03 03:24:14;;;;;;;0.43;0.22;;;;;;;3.14;100.00;96915.22;5087204;28;24454;-74
2023/02/03 03:26:46;;;;;;;0.30;0.20;;;;;;;3.20;100.00;96914.31;5083505;28;24426;-74
2023/02/03 03:29:17;;;;;;;0.45;0.20;;;;;;;3.17;100.00;96914.34;5096001;28;24772;-74
2023/02/03 03:31:45;;;;;;;0.40;0.30;;;;;;;3.17;100.00;96904.94;5093918;28;24989;-74
2023/02/03 03:34:13;;;;;;;0.98;0.30;;;;;;;3.17;100.00;96907.50;5103746;28;25021;-75
2023/02/03 03:36:47;;;;;;;2.60;0.30;;;;;;;3.18;100.00;96916.03;5100730;28;24433;-75
2023/02/03 03:39:17;;;;;;;0.70;0.27;;;;;;;3.19;100.00;96928.81;5102012;28;24804;-75
2023/02/03 03:41:56;;;;;;;0.57;0.30;;;;;;;3.21;100.00;96944.16;5092522;28;24442;-75
2023/02/03 03:44:27;;;;;;;0.80;0.30;;;;;;;3.21;100.00;96947.56;5100802;28;24456;-75
2023/02/03 03:47:03;;;;;;;0.50;0.30;;;;;;;3.21;100.00;96962.06;5102538;28;24874;-76
2023/02/03 03:49:33;;;;;;;0.40;0.30;;;;;;;3.22;100.00;96967.16;5102977;28;25005;-74
2023/02/03 03:52:07;;;;;;;2.00;0.22;;;;;;;3.21;100.00;96972.31;5097973;28;25002;-76
2023/02/03 03:54:36;;;;;;;0.47;0.30;;;;;;;3.19;100.00;96976.59;5104603;28;24997;-75
2023/02/03 03:57:08;;;;;;;0.13;0.13;;;;;;;3.28;100.00;96971.34;5099645;28;24987;-76
2023/02/03 03:59:38;;;;;;;0.60;0.20;;;;;;;3.20;100.00;96986.84;5094526;28;24441;-75
2023/02/03 04:02:05;;;;;;;0.20;0.20;;;;;;;3.18;100.00;96982.59;5091937;28;24994;-75
2023/02/03 04:04:35;;;;;;;0.50;0.25;;;;;;;3.20;100.00;96984.28;5095325;28;24426;-75
2023/02/03 04:07:03;;;;;;;0.20;0.20;;;;;;;3.18;100.00;96995.38;5099232;28;24438;-76
2023/02/03 04:09:29;;;;;;;0.67;0.20;;;;;;;3.17;100.00;96999.66;5089250;28;24435;-74
2023/02/03 04:12:02;;;;;;;0.63;0.20;;;;;;;3.14;100.00;96999.72;5095298;28;24433;-74
2023/02/03 04:14:29;;;;;;;0.43;0.22;;;;;;;3.15;100.00;97002.25;5101250;28;24438;-75
2023/02/03 04:16:56;;;;;;;0.30;0.20;;;;;;;3.18;100.00;96997.94;5093523;28;24434;-75
2023/02/03 04:19:23;;;;;;;0.30;0.20;;;;;;;3.19;100.00;96999.63;5096173;28;24833;-74
2023/02/03 04:21:49;;;;;;;2.15;0.40;;;;;;;3.16;100.00;96998.00;5094645;28;24441;-74
2023/02/03 04:24:17;;;;;;;0.98;0.30;;;;;;;3.14;100.00;96998.00;5095162;28;24454;-74
2023/02/03 04:26:44;;;;;;;0.73;0.35;;;;;;;3.15;100.00;97004.81;5092777;28;24792;-74
2023/02/03 04:29:11;;;;;;;0.50;0.30;;;;;;;3.18;100.00;97006.47;5101651;28;25079;-74
2023/02/03 04:31:38;;;;;;;0.68;0.30;;;;;;;3.16;100.00;97013.34;5099987;28;24438;-75
2023/02/03 04:34:04;;;;;;;0.40;0.30;;;;;;;3.15;100.00;97004.81;5108245;28;24438;-74
2023/02/03 04:36:31;;;;;;;0.63;0.30;;;;;;;3.18;100.00;96995.38;5102119;28;24430;-74
2023/02/03 04:38:57;;;;;;;0.40;0.30;;;;;;;3.16;100.00;96982.63;5102608;28;24437;-75
2023/02/03 04:41:25;;;;;;;2.90;0.30;;;;;;;3.15;100.00;96983.47;5093841;28;24441;-74
2023/02/03 04:43:52;;;;;;;0.40;0.20;;;;;;;3.24;100.00;96980.78;5098454;28;24454;-75
2023/02/03 04:46:18;;;;;;;0.30;0.20;;;;;;;3.22;100.00;96979.13;5103978;28;24471;-75
2023/02/03 04:48:45;;;;;;;0.55;0.17;;;;;;;3.29;100.00;96970.47;5095469;28;24506;-75
2023/02/03 04:51:11;;;;;;;0.57;0.40;;;;;;;3.26;100.00;96963.69;5100219;28;24453;-75
2023/02/03 04:53:38;;;;;;;0.90;0.80;;;;;;;3.34;100.00;96963.59;5097192;28;24433;-76
2023/02/03 04:56:05;;;;;;;1.77;1.00;;;;;;;3.27;100.00;96962.00;5106692;28;24445;-75
2023/02/03 04:58:33;;;;;;;1.30;1.02;;;;;;;3.28;100.00;96959.41;5095203;28;24986;-75
2023/02/03 05:01:07;;;;;;;2.50;1.63;;;;;;;3.23;100.00;96958.63;5096639;28;24448;-75
2023/02/03 05:03:33;;;;;;;2.30;1.83;;;;;;;3.22;100.00;96956.06;5094879;28;24454;-75
2023/02/03 05:05:59;;;;;;;1.35;1.13;;;;;;;3.23;100.00;96962.91;5094556;28;24438;-74
2023/02/03 05:08:26;;;;;;;1.05;0.82;;;;;;;3.18;100.00;96967.22;5102153;28;24433;-75
2023/02/03 05:10:52;;;;;;;1.13;0.50;;;;;;;3.19;100.00;96959.56;5094178;28;24784;-75
2023/02/03 05:13:19;;;;;;;1.10;0.60;;;;;;;3.16;100.00;96954.47;5107310;28;24997;-75
2023/02/03 05:15:47;;;;;;;1.02;0.70;;;;;;;3.22;100.00;96963.75;5093643;28;24797;-75
2023/02/03 05:18:13;;;;;;;1.23;0.35;;;;;;;3.19;100.00;96977.47;5094127;28;24438;-75
2023/02/03 05:20:39;;;;;;;3.05;0.45;;;;;;;3.20;100.00;96965.50;5089999;28;24824;-75
2023/02/03 05:23:06;;;;;;;1.75;0.40;;;;;;;3.14;100.00;96974.09;5085556;28;25006;-75
2023/02/03 05:25:32;;;;;;;1.02;0.40;;;;;;;3.15;100.00;96974.09;5088727;28;25018;-75
2023/02/03 05:27:59;;;;;;;1.40;0.50;;;;;;;3.12;100.00;96975.88;5089590;28;24995;-75
2023/02/03 05:30:25;;;;;;;1.23;0.50;;;;;;;3.11;100.00;96976.72;5094332;28;24793;-75
2023/02/03 05:32:53;;;;;;;3.00;0.80;;;;;;;3.12;100.00;96984.38;5102329;28;24438;-75
2023/02/03 05:35:19;;;;;;;2.50;0.80;;;;;;;3.13;100.00;96990.34;5095684;28;24434;-75
2023/02/03 05:37:47;;;;;;;1.48;0.63;;;;;;;3.09;100.00;96989.53;5108025;28;24440;-75
2023/02/03 05:42:58;;;;;;;1.98;0.88;;;;;;;3.08;100.00;96990.41;5094783;28;24448;-75
2023/02/03 05:45:24;;;;;;;3.33;0.80;;;;;;;3.13;100.00;96991.19;5102501;28;24975;-75
2023/02/03 05:47:52;;;;;;;1.35;0.85;;;;;;;3.15;100.00;96991.16;5096321;28;24446;-75
2023/02/03 05:50:19;;;;;;;1.02;0.80;;;;;;;3.15;100.00;96991.16;5100626;28;24995;-75
2023/02/03 05:52:45;;;;;;;2.60;1.52;;;;;;;3.13;100.00;96980.09;5100152;28;24438;-76
2023/02/03 05:55:12;;;;;;;1.75;1.20;;;;;;;3.13;100.00;96970.72;5105937;28;24441;-75
2023/02/03 05:57:38;;;;;;;1.97;1.00;;;;;;;3.14;100.00;96967.28;5100541;28;24441;-74
2023/02/03 06:00:06;;;;;;;1.27;0.73;;;;;;;3.17;100.00;96968.94;5101900;28;24441;-76
2023/02/03 06:02:33;;;;;;;2.35;1.10;;;;;;;3.17;100.00;96968.94;5102614;28;24978;-77
2023/02/03 06:05:01;;;;;;;1.48;0.90;;;;;;;3.15;100.00;96955.31;5088360;28;24984;-77
2023/02/03 06:07:27;;;;;;;1.58;1.08;;;;;;;3.19;100.00;96959.56;5105787;28;25002;-75
2023/02/03 06:09:53;;;;;;;4.93;0.77;;;;;;;3.19;100.00;96963.78;5095015;28;25207;-75
2023/02/03 06:12:20;;;;;;;2.13;0.90;;;;;;;3.18;100.00;96957.84;5097047;28;25006;-76
2023/02/03 06:14:47;;;;;;;1.23;0.80;;;;;;;3.17;100.00;96961.28;5100426;28;24793;-75
2023/02/03 06:17:15;;;;;;;1.95;0.95;;;;;;;3.17;100.00;96960.44;5098333;28;24859;-76
2023/02/03 06:19:41;;;;;;;2.00;1.00;;;;;;;3.24;100.00;96956.91;5100941;28;24868;-75
2023/02/03 06:22:09;;;;;;;1.48;0.63;;;;;;;3.25;100.00;96950.91;5099382;28;24468;-75
2023/02/03 06:24:36;;;;;;;1.10;0.80;;;;;;;3.24;100.00;96944.13;5093420;28;24462;-76
2023/02/03 06:27:02;;;;;;;1.65;1.10;;;;;;;3.27;100.00;96937.22;5102369;28;24460;-76
2023/02/03 06:29:29;;;;;;;0.90;0.80;;;;;;;3.28;100.00;96940.63;5090715;28;24441;-76
2023/02/03 06:31:56;;;;;;;4.43;1.20;;;;;;;3.30;100.00;96931.19;5100955;27;24425;-75
2023/02/03 06:34:22;;;;;;;1.15;0.50;;;;;;;3.32;100.00;96926.91;5100789;28;25068;-75
2023/02/03 06:36:49;;;;;;;1.80;0.70;;;;;;;3.35;100.00;96935.41;5094444;28;24438;-75
2023/02/03 06:39:17;;;;;;;1.05;0.65;;;;;;;3.43;100.00;96944.66;5108410;28;24440;-75
2023/02/03 06:41:43;;;;;;;2.38;1.40;;;;;;;3.37;100.00;96960.97;5090164;28;24430;-76
2023/02/03 06:44:10;;;;;;;1.83;0.98;;;;;;;3.31;100.00;96971.31;5090396;28;24463;-76
2023/02/03 06:46:36;;;;;;;1.40;1.00;;;;;;;3.30;100.00;96973.03;5098402;28;24450;-75
2023/02/03 06:49:03;;;;;;;2.40;1.20;;;;;;;3.27;100.00;96967.13;5101442;28;25151;-75
2023/02/03 06:51:29;;;;;;;2.05;1.48;;;;;;;3.31;100.00;96963.63;5097890;28;24440;-76
2023/02/03 06:53:57;;;;;;;1.25;0.73;;;;;;;3.28;100.00;96944.03;5100562;28;24796;-76
2023/02/03 06:56:25;;;;;;;2.63;1.00;;;;;;;3.27;100.00;96939.78;5105334;28;24502;-76
2023/02/03 06:58:51;;;;;;;1.45;0.70;;;;;;;3.25;100.00;96941.50;5095930;28;24998;-77
2023/02/03 07:01:18;;;;;;;2.60;0.70;;;;;;;3.21;100.00;96941.59;5098667;28;24818;-77
2023/02/03 07:03:45;;;;;;;1.23;0.60;;;;;;;3.21;100.00;96942.44;5096457;28;24640;-76
2023/02/03 07:06:12;;;;;;;0.95;0.75;;;;;;;3.22;100.00;96950.97;5103276;28;24494;-77
2023/02/03 07:08:39;;;;;;;1.00;0.43;;;;;;;3.15;100.00;96961.31;5090172;28;24441;-76
2023/02/03 07:11:05;;;;;;;2.00;0.90;;;;;;;3.09;100.00;96946.03;5095314;28;24943;-76
2023/02/03 07:13:33;;;;;;;1.50;0.82;;;;;;;3.12;100.00;96942.59;5100562;28;24437;-76
2023/02/03 07:15:59;;;;;;;1.92;0.93;;;;;;;3.15;100.00;96940.81;5101974;28;24971;-76
2023/02/03 07:18:26;;;;;;;1.23;0.70;;;;;;;3.18;100.00;96947.59;5102370;28;24959;-77
2023/02/03 07:20:53;;;;;;;1.90;0.95;;;;;;;3.20;100.00;96938.19;5097368;28;24438;-77
2023/02/03 07:23:19;;;;;;;2.20;1.00;;;;;;;3.14;100.00;96939.13;5100142;28;24824;-76
2023/02/03 07:25:46;;;;;;;2.72;1.10;;;;;;;3.11;100.00;96928.91;5099233;28;24438;-76
2023/02/03 07:28:12;;;;;;;1.50;0.80;;;;;;;3.08;100.00;96921.31;5096951;28;24788;-77
2023/02/03 07:30:40;;;;;;;3.03;0.88;;;;;;;3.04;100.00;96921.34;5103723;28;24442;-77
2023/02/03 07:33:06;;;;;;;1.58;0.90;;;;;;;3.06;100.00;96912.78;5094742;28;24437;-77
2023/02/03 07:35:33;;;;;;;1.95;1.25;;;;;;;3.08;100.00;96911.06;5094858;28;24982;-78
2023/02/03 07:37:59;;;;;;;1.60;0.80;;;;;;;3.10;100.00;96909.31;5098129;28;24430;-77
2023/02/03 07:40:26;;;;;;;3.45;1.00;;;;;;;3.11;100.00;96905.03;5099629;28;24442;-77
2023/02/03 07:42:52;;;;;;;2.50;0.88;;;;;;;3.13;100.00;96911.84;5088545;28;24441;-76
2023/02/03 07:45:20;;;;;;;2.70;0.90;;;;;;;3.14;100.00;96925.47;5097397;28;24485;-76
2023/02/03 07:47:48;;;;;;;1.33;0.93;;;;;;;3.15;100.00;96934.84;5100002;28;24524;-76
2023/02/03 07:50:15;;;;;;;1.67;0.80;;;;;;;3.17;100.00;96952.75;5102753;28;24441;-76
2023/02/03 07:52:41;;;;;;;1.88;1.13;;;;;;;3.17;100.00;96957.88;5089787;28;24990;-75
2023/02/03 07:55:08;;;;;;;3.85;1.65;;;;;;;3.17;100.00;96963.00;5095774;28;24446;-76
2023/02/03 07:57:35;;;;;;;2.40;1.20;;;;;;;3.26;100.00;96968.81;5097193;28;25264;-76
2023/02/03 08:00:03;;;;;;;2.53;1.30;;;;;;;3.29;100.00;96980.72;5093185;28;24495;-76
2023/02/03 08:02:29;;;;;;;1.58;0.93;;;;;;;3.30;100.00;96984.97;5095489;28;24813;-76
2023/02/03 08:04:57;;;;;;;2.20;1.00;;;;;;;3.30;100.00;96983.28;5092372;28;24462;-76
2023/02/03 08:07:24;;;;;;;4.32;1.30;;;;;;;3.33;100.00;96990.88;5103254;28;24438;-76
2023/02/03 08:09:51;;;;;;;4.40;2.45;;;;;;;3.47;100.00;96997.53;5098207;28;24552;-75
2023/02/03 08:12:17;;;;;;;7.75;3.17;;;;;;;3.51;100.00;97001.75;5102268;28;24449;-76
2023/02/03 08:14:43;;;;;;;6.50;5.10;;;;;;;3.52;100.00;97001.72;5086745;28;24516;-77
2023/02/03 08:17:10;;;;;;;3.63;2.40;;;;;;;3.51;100.00;97009.41;5094381;28;24438;-77
2023/02/03 08:19:36;;;;;;;3.83;2.58;;;;;;;3.54;100.00;97007.66;5085181;28;24443;-76
2023/02/03 08:22:04;;;;;;;16.42;8.40;;;;;;;3.58;100.00;97001.63;5094338;28;24445;-78
2023/02/03 08:24:31;;;;;;;3.92;2.65;;;;;;;3.59;100.00;97005.88;5101192;28;24457;-77
2023/02/03 08:26:58;;;;;;;4.38;1.10;;;;;;;3.64;100.00;96998.13;5095217;28;24425;-78
2023/02/03 08:29:24;;;;;;;2.30;0.80;;;;;;;3.74;100.00;97001.38;5102159;28;24430;-76
2023/02/03 08:31:51;;;;;;;3.38;1.98;;;;;;;3.77;100.00;96998.75;5101830;28;24437;-76
2023/02/03 08:34:17;;;;;;;1.45;0.52;;;;;;;3.83;100.00;97011.50;5091635;28;24437;-76
2023/02/03 08:36:44;;;;;;;2.50;0.77;;;;;;;3.82;100.00;97023.47;5100192;28;24444;-76
2023/02/03 08:39:12;;;;;;;0.85;0.50;;;;;;;3.81;100.00;97024.31;5104396;28;24445;-77
2023/02/03 08:41:38;;;;;;;2.40;0.80;;;;;;;3.86;100.00;97030.22;5097495;28;24445;-77
2023/02/03 08:44:05;;;;;;;2.35;1.25;;;;;;;3.86;100.00;97027.66;5099058;28;24462;-76
2023/02/03 08:46:32;;;;;;;3.73;2.03;;;;;;;3.91;100.00;97030.13;5100436;28;24438;-76
2023/02/03 08:49:01;;;;;;;2.40;0.90;;;;;;;3.94;100.00;97036.94;5098874;28;24993;-76
2023/02/03 08:51:28;;;;;;;1.42;0.88;;;;;;;4.02;100.00;97033.38;5097701;28;24438;-76
2023/02/03 08:53:54;;;;;;;2.20;0.60;;;;;;;4.02;100.00;97033.38;5098294;28;24460;-76
2023/02/03 08:56:23;;;;;;;2.25;1.00;;;;;;;4.05;100.00;97033.31;5102315;28;24438;-78
2023/02/03 08:58:50;;;;;;;1.88;1.38;;;;;;;4.02;100.00;97018.00;5102601;28;24993;-76
2023/02/03 09:01:16;;;;;;;1.15;0.70;;;;;;;3.99;100.00;97012.91;5088369;28;25014;-75
2023/02/03 09:03:43;;;;;;;3.42;2.20;;;;;;;4.06;100.00;97019.63;5093148;28;25045;-76
2023/02/03 09:06:12;;;;;;;0.93;0.70;;;;;;;4.05;100.00;97032.47;5102464;28;24462;-76
2023/02/03 09:08:38;;;;;;;0.85;0.52;;;;;;;4.16;100.00;97011.78;5090573;28;24495;-76
2023/02/03 09:11:08;;;;;;;1.58;1.33;;;;;;;4.18;100.00;97012.59;5099712;28;24449;-75
2023/02/03 09:13:36;;;;;;;3.47;2.80;;;;;;;4.15;100.00;97002.38;5101450;28;25013;-74
2023/02/03 09:16:03;;;;;;;5.85;3.97;;;;;;;4.17;100.00;97003.22;5091070;28;24518;-76
2023/02/03 09:18:29;;;;;;;14.20;8.68;;;;;;;4.20;100.00;96993.75;5096611;28;24443;-77
2023/02/03 09:21:01;;;;;;;2.67;1.48;;;;;;;4.34;100.00;96994.34;5099050;28;24434;-76
2023/02/03 09:23:27;;;;;;;1.35;0.55;;;;;;;4.44;100.00;96989.88;5100660;28;24434;-76
2023/02/03 09:25:54;;;;;;;4.78;2.85;;;;;;;4.53;100.00;97002.53;5096265;28;24461;-78
2023/02/03 09:28:20;;;;;;;4.80;3.92;;;;;;;4.54;100.00;97006.78;5098351;28;24994;-76
2023/02/03 09:30:48;;;;;;;1.33;0.80;;;;;;;4.47;100.00;97007.78;5101552;28;24982;-76
2023/02/03 09:33:14;;;;;;;6.22;1.27;;;;;;;4.47;100.00;97020.59;5093766;28;24988;-76
2023/02/03 09:35:41;;;;;;;1.15;0.77;;;;;;;4.51;100.00;97014.53;5100883;28;24826;-76
2023/02/03 09:38:07;;;;;;;0.60;0.40;;;;;;;4.53;100.00;97012.81;5101118;28;24434;-76
2023/02/03 09:40:36;;;;;;;3.08;1.10;;;;;;;4.57;100.00;96998.19;5098072;28;24437;-76
2023/02/03 09:43:13;;;;;;;1.73;1.52;;;;;;;4.58;100.00;96997.31;5096089;28;24441;-76
2023/02/03 09:45:40;;;;;;;3.45;0.50;;;;;;;4.56;100.00;96993.91;5088089;28;24453;-76
2023/02/03 09:48:14;;;;;;;0.95;0.57;;;;;;;4.47;100.00;97012.06;5092396;28;24983;-77
2023/02/03 09:50:43;;;;;;;0.30;0.22;;;;;;;4.50;100.00;97004.31;5094574;28;24436;-77
2023/02/03 09:53:20;;;;;;;0.65;0.40;;;;;;;4.53;100.00;97002.53;5096597;28;24445;-76
2023/02/03 09:55:48;;;;;;;0.63;0.50;;;;;;;4.59;100.00;96999.00;5096695;28;24433;-76
2023/02/03 09:58:17;;;;;;;1.00;0.80;;;;;;;4.63;100.00;96982.66;5101163;28;24446;-75
2023/02/03 10:00:47;;;;;;;2.03;0.73;;;;;;;4.64;100.00;96979.25;5109605;28;24442;-76
2023/02/03 10:03:25;;;;;;;0.70;0.50;;;;;;;4.66;100.00;96980.03;5097385;28;24446;-77
2023/02/03 10:06:09;;;;;;;1.50;0.40;;;;;;;4.63;100.00;96980.09;5098720;28;24471;-75
2023/02/03 10:08:47;;;;;;;0.93;0.43;;;;;;;4.63;100.00;97002.34;5095295;28;24425;-76
2023/02/03 10:11:24;;;;;;;0.80;0.68;;;;;;;4.71;100.00;97008.16;5102552;28;24441;-77
2023/02/03 10:14:03;;;;;;;1.02;0.93;;;;;;;4.72;100.00;96997.06;5097535;28;24449;-76
2023/02/03 10:16:42;;;;;;;0.60;0.50;;;;;;;4.76;100.00;96993.53;5103514;28;24516;-76
2023/02/03 10:19:18;;;;;;;0.52;0.50;;;;;;;4.72;100.00;96973.94;5091811;28;24466;-76
2023/02/03 10:21:49;;;;;;;2.05;0.40;;;;;;;4.82;100.00;96988.25;5085858;28;25055;-76
2023/02/03 10:24:21;;;;;;;0.63;0.30;;;;;;;4.75;100.00;96981.59;5088192;28;24463;-76
2023/02/03 10:26:49;;;;;;;0.45;0.22;;;;;;;4.74;100.00;97006.38;5099529;28;24440;-76
2023/02/03 10:29:20;;;;;;;0.57;0.32;;;;;;;4.76;100.00;97016.63;5094763;28;25010;-76
2023/02/03 10:31:48;;;;;;;1.17;0.70;;;;;;;4.73;100.00;97020.09;5096620;28;24430;-76
2023/02/03 10:34:18;;;;;;;0.52;0.35;;;;;;;4.81;100.00;97007.94;5103877;28;24795;-75
2023/02/03 10:37:03;;;;;;;3.50;1.17;;;;;;;5.02;100.00;97003.28;5102275;28;24833;-74
2023/02/03 10:39:36;;;;;;;1.65;1.45;;;;;;;4.98;100.00;97004.22;5096150;28;24426;-74
2023/02/03 10:42:05;;;;;;;2.83;2.27;;;;;;;4.97;100.00;97005.94;5104368;28;24437;-77
2023/02/03 10:44:37;;;;;;;3.08;1.92;;;;;;;4.95;100.00;97011.97;5101285;28;24462;-76
2023/02/03 10:47:24;;;;;;;1.30;0.80;;;;;;;4.99;100.00;97013.59;5086214;28;24434;-76
2023/02/03 10:49:54;;;;;;;0.52;0.40;;;;;;;4.88;100.00;97005.28;5102887;28;24448;-76
2023/02/03 10:52:29;;;;;;;3.38;2.47;;;;;;;4.83;100.00;97000.25;5083735;28;25034;-75
2023/02/03 10:54:58;;;;;;;4.32;2.92;;;;;;;4.82;100.00;96996.84;5091689;28;24464;-76
2023/02/03 10:57:25;;;;;;;4.47;3.45;;;;;;;4.80;100.00;96980.59;5094768;28;24880;-75
2023/02/03 10:59:52;;;;;;;0.95;0.60;;;;;;;4.81;100.00;96977.16;5107126;28;24795;-76
2023/02/03 11:02:24;;;;;;;8.05;3.10;;;;;;;4.85;100.00;96963.38;5095310;28;24522;-75
2023/02/03 11:05:09;;;;;;;5.55;2.30;;;;;;;4.81;100.00;96959.19;5096357;28;24465;-76
2023/02/03 11:07:35;;;;;;;4.80;2.20;;;;;;;4.83;100.00;96956.59;5099307;28;24468;-76
2023/02/03 11:10:02;;;;;;;0.75;0.57;;;;;;;4.87;100.00;96952.25;5094532;28;24453;-74
2023/02/03 11:12:29;;;;;;;2.22;1.30;;;;;;;4.92;100.00;96946.13;5097250;28;24449;-73
2023/02/03 11:14:55;;;;;;;2.40;0.70;;;;;;;4.85;100.00;96944.56;5104349;28;24440;-73
2023/02/03 11:17:25;;;;;;;3.03;1.17;;;;;;;4.91;100.00;96944.44;5096233;28;24441;-74
2023/02/03 11:19:54;;;;;;;4.93;3.17;;;;;;;4.90;100.00;96940.19;5099634;28;24442;-74
2023/02/03 11:22:31;;;;;;;4.13;2.60;;;;;;;4.92;100.00;96938.44;5093133;28;24802;-74
2023/02/03 11:24:59;;;;;;;0.93;0.40;;;;;;;4.94;100.00;96935.84;5098409;28;24452;-74
2023/02/03 11:27:29;;;;;;;1.58;1.40;;;;;;;4.97;100.00;96935.75;5100329;28;24446;-73
2023/02/03 11:30:14;;;;;;;1.30;0.93;;;;;;;4.90;100.00;96929.09;5101775;28;24441;-74
2023/02/03 11:32:42;;;;;;;0.98;0.77;;;;;;;4.90;100.00;96947.91;5094315;28;24433;-74
2023/02/03 11:35:16;;;;;;;0.35;0.30;;;;;;;4.90;100.00;96939.34;5089052;28;25011;-75
2023/02/03 11:37:45;;;;;;;1.25;1.00;;;;;;;4.94;100.00;96935.84;5096514;28;24430;-74
2023/02/03 11:40:30;;;;;;;1.80;1.10;;;;;;;5.00;100.00;96921.13;5104005;28;24441;-73
2023/02/03 11:43:05;;;;;;;1.27;0.52;;;;;;;5.07;100.00;96922.69;5097427;28;24437;-74
2023/02/03 11:45:38;;;;;;;1.27;0.80;;;;;;;5.09;100.00;96930.38;5098322;28;25787;-72